Time;durP1;ratioP1;P1;durP2;ratioP2;P2;SDS_P1;SDS_P2;PMS_P1;PMS_P2;Temp;Humidity;BMP_temperature;BMP_pressure;BME280_temperature;BME280_humidity;BME280_pressure;Samples;Min_cycle;Max_cycle;Signal;HPM_P1;HPM_P2
2023/04/20 00:01:00;;;;;;;2.70;2.40;;;15.60;52.20;;;;;;6126242;23;20200;-69
2023/04/20 00:03:27;;;;;;;2.70;2.30;;;15.60;52.20;;;;;;6100184;23;20173;-69
2023/04/20 00:05:53;;;;;;;3.20;2.33;;;15.60;52.20;;;;;;6126214;23;20401;-69
2023/04/20 00:08:19;;;;;;;2.93;2.23;;;15.60;52.20;;;;;;6100177;23;20392;-67
2023/04/20 00:10:45;;;;;;;2.70;2.50;;;15.60;52.20;;;;;;6126310;23;20631;-66
2023/04/20 00:13:11;;;;;;;4.07;3.17;;;15.60;52.20;;;;;;6126275;23;20885;-66
2023/04/20 00:15:37;;;;;;;4.40;2.53;;;15.60;52.20;;;;;;6126336;23;20448;-66
2023/04/20 00:18:05;;;;;;;3.20;2.67;;;15.60;52.20;;;;;;6126525;23;20432;-66
2023/04/20 00:20:31;;;;;;;2.60;2.10;;;15.60;52.20;;;;;;6126170;23;20401;-67
2023/04/20 00:22:57;;;;;;;2.97;2.30;;;15.50;52.10;;;;;;6126101;23;20400;-66
2023/04/20 00:25:22;;;;;;;3.00;2.53;;;15.60;52.20;;;;;;6125867;23;20152;-67
2023/04/20 00:27:48;;;;;;;3.43;2.67;;;15.60;52.20;;;;;;6126155;23;20153;-67
2023/04/20 00:30:14;;;;;;;5.43;2.77;;;15.60;52.20;;;;;;6126286;23;20156;-67
2023/04/20 00:32:40;;;;;;;2.63;2.43;;;15.50;52.10;;;;;;6126382;23;20181;-69
2023/04/20 00:35:05;;;;;;;5.20;2.70;;;15.60;52.20;;;;;;6125979;23;20384;-69
2023/04/20 00:37:31;;;;;;;2.70;2.50;;;15.50;52.10;;;;;;6125912;23;20184;-69
2023/04/20 00:39:57;;;;;;;2.90;2.50;;;15.50;52.10;;;;;;6125971;23;20692;-69
2023/04/20 00:42:22;;;;;;;3.43;2.77;;;15.50;52.10;;;;;;6125856;23;20219;-69
2023/04/20 00:44:49;;;;;;;4.50;3.00;;;15.50;52.10;;;;;;6099867;23;20523;-69
2023/04/20 00:47:15;;;;;;;3.00;2.77;;;15.50;52.10;;;;;;6125961;23;20157;-69
2023/04/20 00:49:41;;;;;;;3.50;2.70;;;15.50;52.10;;;;;;6125970;23;20377;-69
2023/04/20 00:52:07;;;;;;;2.97;2.73;;;15.50;52.10;;;;;;6125887;23;20378;-69
2023/04/20 00:54:34;;;;;;;3.53;2.70;;;15.50;52.10;;;;;;6125751;23;20790;-69
2023/04/20 00:57:01;;;;;;;3.10;2.60;;;15.50;52.10;;;;;;6126140;23;20428;-66
2023/04/20 00:59:27;;;;;;;2.27;2.03;;;15.50;52.00;;;;;;6125835;23;20436;-66
2023/04/20 01:01:52;;;;;;;3.20;2.77;;;15.50;52.10;;;;;;6125880;23;20408;-69
2023/04/20 01:04:18;;;;;;;2.43;2.20;;;15.50;52.10;;;;;;6125796;23;20939;-69
2023/04/20 01:06:44;;;;;;;2.60;2.40;;;15.50;52.10;;;;;;6126130;23;20267;-69
2023/04/20 01:09:11;;;;;;;2.77;2.50;;;15.50;52.10;;;;;;6126049;23;20145;-70
2023/04/20 01:11:37;;;;;;;2.60;2.40;;;15.50;52.00;;;;;;6124321;23;20156;-69
2023/04/20 01:14:02;;;;;;;2.57;2.37;;;15.50;52.00;;;;;;6125772;23;20395;-69
2023/04/20 01:16:29;;;;;;;2.50;2.30;;;15.50;52.10;;;;;;6125995;23;20152;-69
2023/04/20 01:18:55;;;;;;;2.63;2.43;;;15.50;52.10;;;;;;6125776;23;20181;-69
2023/04/20 01:21:21;;;;;;;3.00;2.70;;;15.50;52.10;;;;;;6125962;23;20383;-70
2023/04/20 01:23:46;;;;;;;2.40;2.10;;;15.50;52.00;;;;;;6099574;23;20425;-69
2023/04/20 01:26:15;;;;;;;3.40;2.50;;;15.50;52.10;;;;;;6125868;23;20377;-66
2023/04/20 01:28:41;;;;;;;2.83;2.60;;;15.50;52.10;;;;;;6099997;23;20490;-66
2023/04/20 01:31:08;;;;;;;3.27;2.77;;;15.50;52.10;;;;;;6125916;23;20384;-67
2023/04/20 01:33:33;;;;;;;2.83;2.53;;;15.50;52.10;;;;;;6125763;23;20200;-67
2023/04/20 01:35:59;;;;;;;3.10;2.60;;;15.50;52.10;;;;;;6126435;23;20424;-67
2023/04/20 01:38:25;;;;;;;3.50;2.43;;;15.40;52.00;;;;;;6127862;23;20282;-66
2023/04/20 01:40:52;;;;;;;3.17;2.53;;;15.40;52.00;;;;;;6126148;23;20384;-66
2023/04/20 01:43:18;;;;;;;2.60;2.40;;;15.40;52.00;;;;;;6127669;23;20442;-67
2023/04/20 01:45:44;;;;;;;3.40;2.73;;;15.40;52.00;;;;;;6127587;23;20373;-66
2023/04/20 01:48:10;;;;;;;4.40;3.13;;;15.40;52.00;;;;;;6127570;23;20376;-67
2023/04/20 01:50:35;;;;;;;2.97;2.63;;;15.40;52.00;;;;;;6127600;23;20208;-66
2023/04/20 01:53:01;;;;;;;2.50;2.30;;;15.40;52.00;;;;;;6127553;23;20177;-66
2023/04/20 01:55:26;;;;;;;2.57;2.37;;;15.40;52.00;;;;;;6127551;23;20149;-67
2023/04/20 01:57:52;;;;;;;3.80;2.40;;;15.40;52.00;;;;;;6127452;23;20553;-67
2023/04/20 02:00:18;;;;;;;3.87;2.90;;;15.40;52.00;;;;;;6127540;23;20150;-66
2023/04/20 02:02:43;;;;;;;2.87;2.63;;;15.40;52.00;;;;;;6101403;23;20169;-67
2023/04/20 02:05:09;;;;;;;2.83;2.40;;;15.40;52.00;;;;;;6127593;23;20196;-67
2023/04/20 02:07:35;;;;;;;3.37;2.80;;;15.40;52.00;;;;;;6127383;23;20149;-66
2023/04/20 02:10:01;;;;;;;3.07;2.70;;;15.40;52.00;;;;;;6127542;23;20156;-67
2023/04/20 02:12:27;;;;;;;3.43;2.63;;;15.40;52.00;;;;;;6127529;23;20488;-67
2023/04/20 02:14:52;;;;;;;3.30;3.00;;;15.40;52.00;;;;;;6127324;23;20400;-66
2023/04/20 02:17:18;;;;;;;3.37;2.73;;;15.40;52.00;;;;;;6101436;23;20559;-67
2023/04/20 02:19:44;;;;;;;3.80;2.50;;;15.40;52.00;;;;;;6127451;23;20485;-66
2023/04/20 02:22:09;;;;;;;2.77;2.50;;;15.40;51.90;;;;;;6127655;23;20408;-67
2023/04/20 02:24:35;;;;;;;3.40;3.10;;;15.40;51.90;;;;;;6127179;23;20169;-66
2023/04/20 02:27:01;;;;;;;2.83;2.53;;;15.40;52.00;;;;;;6127492;23;20172;-67
2023/04/20 02:29:26;;;;;;;2.53;2.33;;;15.40;51.90;;;;;;6127287;23;20149;-66
2023/04/20 02:31:52;;;;;;;2.97;2.57;;;15.40;52.00;;;;;;6127380;23;20489;-67
2023/04/20 02:34:18;;;;;;;2.30;2.10;;;15.40;51.90;;;;;;6101346;23;20255;-67
2023/04/20 02:36:43;;;;;;;3.03;2.30;;;15.40;52.00;;;;;;6127286;23;20153;-66
2023/04/20 02:39:09;;;;;;;3.07;2.77;;;15.40;52.00;;;;;;6127224;23;20224;-66
2023/04/20 02:41:34;;;;;;;3.10;2.80;;;15.30;51.90;;;;;;6127517;23;20478;-66
2023/04/20 02:44:00;;;;;;;3.00;2.63;;;15.30;51.90;;;;;;6127032;23;20261;-66
2023/04/20 02:46:26;;;;;;;2.97;2.70;;;15.30;51.90;;;;;;6127051;23;20152;-66
2023/04/20 02:48:51;;;;;;;2.73;2.50;;;15.30;51.90;;;;;;6126933;23;20627;-66
2023/04/20 02:51:17;;;;;;;3.23;2.73;;;15.30;51.90;;;;;;6127210;23;20157;-66
2023/04/20 02:53:42;;;;;;;2.30;2.10;;;15.30;51.90;;;;;;6127015;23;20618;-67
2023/04/20 02:56:08;;;;;;;3.07;2.60;;;15.30;51.90;;;;;;6127068;23;20153;-67
2023/04/20 02:58:34;;;;;;;2.60;2.40;;;15.30;51.90;;;;;;6101272;23;20184;-66
2023/04/20 03:01:01;;;;;;;2.73;2.40;;;15.30;51.90;;;;;;6127212;23;20154;-67
2023/04/20 03:03:27;;;;;;;2.70;2.37;;;15.30;51.80;;;;;;6127104;23;20480;-67
2023/04/20 03:05:53;;;;;;;2.67;2.27;;;15.30;51.90;;;;;;6100845;23;20399;-67
2023/04/20 03:08:19;;;;;;;3.50;3.00;;;15.30;51.80;;;;;;6126874;23;20377;-67
2023/04/20 03:10:45;;;;;;;3.57;3.10;;;15.30;51.80;;;;;;6126944;23;20377;-66
2023/04/20 03:13:10;;;;;;;3.27;2.93;;;15.30;51.80;;;;;;6126849;23;20173;-67
2023/04/20 03:15:36;;;;;;;2.73;2.53;;;15.30;51.90;;;;;;6126967;23;20590;-66
2023/04/20 03:18:02;;;;;;;2.93;2.60;;;15.30;51.80;;;;;;6126747;23;20177;-66
2023/04/20 03:20:28;;;;;;;3.53;2.50;;;15.30;51.80;;;;;;6126706;23;20185;-66
2023/04/20 03:22:54;;;;;;;3.00;2.67;;;15.30;51.80;;;;;;6126789;23;20807;-66
2023/04/20 03:25:19;;;;;;;2.70;2.37;;;15.30;51.80;;;;;;6100673;23;20482;-66
2023/04/20 03:27:46;;;;;;;2.97;2.50;;;15.30;51.80;;;;;;6126747;23;20149;-66
2023/04/20 03:30:12;;;;;;;2.77;2.50;;;15.30;51.80;;;;;;6126678;23;20156;-67
2023/04/20 03:32:39;;;;;;;2.80;2.30;;;15.30;51.80;;;;;;6126960;23;20380;-66
2023/04/20 03:35:05;;;;;;;2.93;2.60;;;15.30;51.80;;;;;;6126623;23;20408;-66
2023/04/20 03:37:31;;;;;;;3.07;2.77;;;15.30;51.80;;;;;;6126635;23;20420;-67
2023/04/20 03:39:56;;;;;;;2.97;2.77;;;15.30;51.80;;;;;;6100710;23;20385;-66
2023/04/20 03:42:22;;;;;;;2.53;2.33;;;15.30;51.80;;;;;;6126499;23;20150;-67
2023/04/20 03:44:47;;;;;;;2.77;2.57;;;15.30;51.80;;;;;;6127328;23;20189;-67
2023/04/20 03:47:13;;;;;;;2.63;2.43;;;15.30;51.80;;;;;;6126833;23;20579;-66
2023/04/20 03:49:39;;;;;;;3.20;2.47;;;15.20;51.70;;;;;;6126511;23;20166;-66
2023/04/20 03:52:06;;;;;;;2.87;2.57;;;15.30;51.80;;;;;;6126631;23;20615;-66
2023/04/20 03:54:31;;;;;;;3.47;2.87;;;15.30;51.80;;;;;;6126345;23;20173;-67
2023/04/20 03:56:57;;;;;;;2.73;2.50;;;15.20;51.80;;;;;;6126483;23;20515;-68
2023/04/20 03:59:23;;;;;;;3.13;2.80;;;15.20;51.70;;;;;;6126607;23;20576;-68
2023/04/20 04:01:49;;;;;;;3.17;2.87;;;15.20;51.70;;;;;;6126559;23;20211;-68
2023/04/20 04:04:14;;;;;;;2.40;2.20;;;15.20;51.70;;;;;;6126438;23;20552;-68
2023/04/20 04:06:40;;;;;;;2.60;2.40;;;15.20;51.70;;;;;;6126532;23;20511;-67
2023/04/20 04:09:05;;;;;;;3.03;2.73;;;15.20;51.70;;;;;;6127007;23;20145;-68
2023/04/20 04:11:31;;;;;;;2.90;2.60;;;15.20;51.70;;;;;;6100501;23;20183;-68
2023/04/20 04:13:58;;;;;;;3.30;2.40;;;15.30;51.80;;;;;;6100140;23;20169;-68
2023/04/20 04:16:24;;;;;;;3.50;2.80;;;15.20;51.70;;;;;;6126358;23;20145;-68
2023/04/20 04:18:49;;;;;;;4.67;3.10;;;15.20;51.70;;;;;;6126334;23;20515;-68
2023/04/20 04:21:15;;;;;;;3.07;2.20;;;15.20;51.70;;;;;;6100295;23;20456;-68
2023/04/20 04:23:41;;;;;;;2.83;2.60;;;15.20;51.70;;;;;;6126222;23;20169;-68
2023/04/20 04:26:07;;;;;;;2.80;2.50;;;15.20;51.70;;;;;;6126235;23;20564;-68
2023/04/20 04:28:33;;;;;;;4.70;2.57;;;15.20;51.60;;;;;;6100226;23;20196;-67
2023/04/20 04:31:04;;;;;;;3.73;2.73;;;15.20;51.60;;;;;;6126195;23;20761;-68
2023/04/20 04:33:32;;;;;;;2.60;2.40;;;15.20;51.60;;;;;;6125914;23;20173;-68
2023/04/20 04:35:59;;;;;;;4.03;2.83;;;15.20;51.70;;;;;;6126404;23;20388;-68
2023/04/20 04:38:25;;;;;;;3.30;2.70;;;15.20;51.70;;;;;;6126303;23;20933;-68
2023/04/20 04:40:51;;;;;;;3.10;2.53;;;15.20;51.60;;;;;;6127047;23;20448;-71
2023/04/20 04:43:18;;;;;;;3.17;2.97;;;15.20;51.70;;;;;;6126647;23;20676;-70
2023/04/20 04:45:44;;;;;;;2.60;2.40;;;15.20;51.60;;;;;;6126609;23;20551;-72
2023/04/20 04:48:10;;;;;;;2.90;2.40;;;15.20;51.60;;;;;;6126660;23;20383;-71
2023/04/20 04:50:39;;;;;;;2.47;2.27;;;15.20;51.60;;;;;;6126399;23;20444;-70
2023/04/20 04:53:05;;;;;;;4.27;3.23;;;15.20;51.60;;;;;;6126490;23;20372;-71
2023/04/20 04:55:31;;;;;;;3.00;2.60;;;15.20;51.60;;;;;;6126844;23;20696;-71
2023/04/20 04:57:57;;;;;;;2.73;2.53;;;15.20;51.60;;;;;;6126754;23;20177;-70
2023/04/20 05:00:24;;;;;;;3.63;2.63;;;15.20;51.60;;;;;;6100429;23;20694;-65
2023/04/20 05:02:51;;;;;;;3.33;2.90;;;15.20;51.60;;;;;;6126460;23;20146;-65
2023/04/20 05:05:18;;;;;;;2.70;2.47;;;15.20;51.60;;;;;;6126174;23;20381;-63
2023/04/20 05:07:43;;;;;;;2.93;2.73;;;15.20;51.60;;;;;;6126506;23;20778;-64
2023/04/20 05:10:09;;;;;;;3.63;2.67;;;15.20;51.60;;;;;;6125875;23;20401;-63
2023/04/20 05:12:35;;;;;;;3.00;2.60;;;15.20;51.60;;;;;;6127098;23;20153;-71
2023/04/20 05:15:01;;;;;;;2.93;2.40;;;15.20;51.60;;;;;;6126926;23;20299;-71
2023/04/20 05:17:26;;;;;;;2.60;2.40;;;15.20;51.60;;;;;;6126271;23;20180;-71
2023/04/20 05:19:52;;;;;;;2.87;2.63;;;15.20;51.60;;;;;;6126489;23;20535;-65
2023/04/20 05:22:17;;;;;;;2.90;2.20;;;15.20;51.60;;;;;;6126280;23;20629;-64
2023/04/20 05:24:43;;;;;;;2.57;2.37;;;15.20;51.60;;;;;;6126701;23;20176;-72
2023/04/20 05:27:10;;;;;;;3.90;2.80;;;15.20;51.50;;;;;;6126307;23;20149;-71
2023/04/20 05:29:36;;;;;;;2.77;2.47;;;15.10;51.50;;;;;;6126521;23;20164;-72
2023/04/20 05:32:01;;;;;;;3.40;3.00;;;15.20;51.60;;;;;;6126401;23;20734;-65
2023/04/20 05:34:27;;;;;;;3.20;2.90;;;15.10;51.50;;;;;;6126292;23;20381;-65
2023/04/20 05:36:53;;;;;;;3.17;2.60;;;15.10;51.40;;;;;;6126244;23;20153;-64
2023/04/20 05:39:19;;;;;;;3.57;3.03;;;15.10;51.40;;;;;;6126206;23;20236;-65
2023/04/20 05:41:46;;;;;;;3.60;3.07;;;15.10;51.40;;;;;;6126647;23;20413;-69
2023/04/20 05:44:12;;;;;;;2.83;2.40;;;15.10;51.50;;;;;;6126186;23;20692;-65
2023/04/20 05:46:37;;;;;;;2.73;2.53;;;15.10;51.40;;;;;;6126126;23;20420;-65
2023/04/20 05:49:03;;;;;;;4.23;2.83;;;15.10;51.40;;;;;;6126353;23;20159;-65
2023/04/20 05:51:32;;;;;;;2.80;2.60;;;15.10;51.50;;;;;;6076226;23;20620;-64
2023/04/20 05:53:59;;;;;;;3.03;2.40;;;15.10;51.50;;;;;;6100593;23;20192;-64
2023/04/20 05:56:24;;;;;;;2.60;2.40;;;15.10;51.50;;;;;;6127034;23;20842;-65
2023/04/20 05:58:51;;;;;;;2.63;2.43;;;15.10;51.50;;;;;;6127016;23;20423;-65
2023/04/20 06:01:17;;;;;;;2.90;2.43;;;15.10;51.50;;;;;;6127375;23;20169;-65
2023/04/20 06:03:42;;;;;;;4.40;2.40;;;15.10;51.40;;;;;;6127356;23;20437;-65
2023/04/20 06:06:08;;;;;;;2.60;2.40;;;15.10;51.50;;;;;;6127150;23;20742;-66
2023/04/20 06:08:34;;;;;;;2.77;2.50;;;15.10;51.50;;;;;;6126825;23;20184;-67
2023/04/20 06:10:59;;;;;;;2.97;2.60;;;15.10;51.50;;;;;;6127245;23;20169;-65
2023/04/20 06:13:25;;;;;;;2.90;2.70;;;15.10;51.50;;;;;;6127486;23;20153;-65
2023/04/20 06:15:51;;;;;;;3.13;2.83;;;15.10;51.50;;;;;;6127857;23;20231;-66
2023/04/20 06:18:17;;;;;;;3.10;2.90;;;15.10;51.50;;;;;;6127135;23;20173;-66
2023/04/20 06:20:43;;;;;;;2.90;2.30;;;15.10;51.60;;;;;;6127137;23;20423;-65
2023/04/20 06:23:09;;;;;;;2.70;2.50;;;15.10;51.50;;;;;;6128191;23;20373;-71
2023/04/20 06:25:35;;;;;;;3.30;2.60;;;15.10;51.50;;;;;;6128708;23;20157;-70
2023/04/20 06:28:02;;;;;;;3.60;2.70;;;15.10;51.50;;;;;;6128090;23;20856;-70
2023/04/20 06:30:28;;;;;;;3.97;3.30;;;15.10;51.40;;;;;;6128041;23;20874;-70
2023/04/20 06:32:54;;;;;;;3.07;2.87;;;15.10;51.40;;;;;;6128076;23;20741;-62
2023/04/20 06:35:22;;;;;;;2.80;2.60;;;15.10;51.50;;;;;;6101677;23;20413;-63
2023/04/20 06:37:48;;;;;;;2.80;2.60;;;15.10;51.50;;;;;;6127542;23;20754;-62
2023/04/20 06:40:14;;;;;;;2.40;2.20;;;15.10;51.50;;;;;;6128616;23;20417;-71
2023/04/20 06:42:40;;;;;;;2.67;2.47;;;15.10;51.50;;;;;;6128323;23;20384;-64
2023/04/20 06:45:06;;;;;;;2.60;2.40;;;15.10;51.50;;;;;;6101990;23;20518;-71
2023/04/20 06:47:32;;;;;;;2.50;2.30;;;15.10;51.50;;;;;;6127589;23;20499;-64
2023/04/20 06:49:59;;;;;;;2.80;2.10;;;15.10;51.50;;;;;;6127647;23;20505;-63
2023/04/20 06:52:26;;;;;;;2.40;2.20;;;15.10;51.50;;;;;;6128107;23;20377;-71
2023/04/20 06:54:52;;;;;;;2.73;2.37;;;15.10;51.50;;;;;;6101697;23;20443;-72
2023/04/20 06:57:17;;;;;;;2.70;2.50;;;15.10;51.50;;;;;;6128063;23;20471;-71
2023/04/20 06:59:43;;;;;;;2.30;2.10;;;15.10;51.50;;;;;;6127911;23;20646;-69
2023/04/20 07:02:08;;;;;;;3.77;2.70;;;15.10;51.50;;;;;;6127349;23;20180;-69
2023/04/20 07:04:34;;;;;;;2.67;2.47;;;15.10;51.50;;;;;;6127765;23;20185;-70
2023/04/20 07:06:59;;;;;;;3.40;2.77;;;15.10;51.50;;;;;;6127538;23;20157;-69
2023/04/20 07:09:28;;;;;;;2.80;2.03;;;15.00;51.40;;;;;;6127416;23;20153;-70
2023/04/20 07:11:55;;;;;;;2.40;2.20;;;15.10;51.50;;;;;;6127408;23;20180;-69
2023/04/20 07:14:20;;;;;;;2.70;2.47;;;15.00;51.40;;;;;;6101612;23;20476;-70
2023/04/20 07:16:50;;;;;;;2.70;2.40;;;15.00;51.50;;;;;;6127116;23;20460;-69
2023/04/20 07:19:16;;;;;;;2.30;2.10;;;15.10;51.50;;;;;;6127378;23;20785;-69
2023/04/20 07:21:41;;;;;;;2.30;2.10;;;15.00;51.50;;;;;;6127483;23;20416;-70
2023/04/20 07:24:07;;;;;;;2.63;2.27;;;15.00;51.50;;;;;;6127742;23;20145;-70
2023/04/20 07:26:33;;;;;;;2.57;2.37;;;15.00;51.50;;;;;;6127202;23;20156;-70
2023/04/20 07:28:58;;;;;;;2.50;2.20;;;15.00;51.50;;;;;;6127343;23;20254;-70
2023/04/20 07:31:24;;;;;;;3.80;2.30;;;15.00;51.50;;;;;;6127142;23;20169;-69
2023/04/20 07:33:49;;;;;;;5.00;2.63;;;15.10;51.40;;;;;;6127198;23;20208;-71
2023/04/20 07:36:15;;;;;;;3.90;3.43;;;15.10;51.20;;;;;;6127409;23;20160;-70
2023/04/20 07:38:41;;;;;;;4.70;4.17;;;15.00;49.70;;;;;;6127123;23;20180;-70
2023/04/20 07:41:10;;;;;;;4.17;3.77;;;14.90;48.40;;;;;;6127189;23;20189;-71
2023/04/20 07:43:36;;;;;;;3.67;3.30;;;14.80;48.30;;;;;;6127670;23;20180;-71
2023/04/20 07:46:01;;;;;;;5.53;4.03;;;14.80;48.80;;;;;;6127313;23;20377;-71
2023/04/20 07:48:27;;;;;;;4.23;3.50;;;14.80;48.90;;;;;;6127269;23;20473;-72
2023/04/20 07:50:53;;;;;;;4.03;3.47;;;14.80;49.10;;;;;;6127325;23;20177;-71
2023/04/20 07:53:18;;;;;;;5.07;4.00;;;14.80;49.20;;;;;;6127331;23;20154;-72
2023/04/20 07:55:44;;;;;;;3.57;3.27;;;14.90;49.40;;;;;;6078390;23;20161;-71
2023/04/20 07:58:10;;;;;;;5.50;3.60;;;14.90;49.40;;;;;;6127305;23;20694;-71
2023/04/20 08:00:36;;;;;;;3.00;2.70;;;14.90;49.50;;;;;;6127143;23;20313;-72
2023/04/20 08:03:02;;;;;;;4.00;3.50;;;14.90;49.50;;;;;;6127342;23;20412;-72
2023/04/20 08:05:27;;;;;;;4.70;3.30;;;14.90;49.60;;;;;;6127092;23;20145;-71
2023/04/20 08:07:53;;;;;;;4.03;3.33;;;14.90;50.10;;;;;;6127070;23;20160;-72
2023/04/20 08:10:19;;;;;;;4.00;3.40;;;14.90;49.60;;;;;;6127373;23;20177;-65
2023/04/20 08:12:45;;;;;;;3.60;3.30;;;14.90;49.70;;;;;;6100999;23;20157;-64
2023/04/20 08:15:12;;;;;;;3.10;2.80;;;14.90;49.70;;;;;;6127587;23;20690;-65
2023/04/20 08:17:37;;;;;;;3.33;3.00;;;14.90;49.80;;;;;;6126912;23;20423;-65
2023/04/20 08:20:04;;;;;;;3.90;3.37;;;14.90;49.80;;;;;;6127238;23;20373;-65
2023/04/20 08:22:31;;;;;;;3.83;3.03;;;14.90;49.90;;;;;;6127335;23;20458;-65
2023/04/20 08:24:56;;;;;;;3.23;2.93;;;15.00;49.90;;;;;;6127308;23;20768;-66
2023/04/20 08:27:22;;;;;;;3.70;2.70;;;15.00;49.90;;;;;;6101195;23;20443;-66
2023/04/20 08:29:48;;;;;;;3.60;3.17;;;15.00;49.90;;;;;;6126899;23;20156;-65
2023/04/20 08:32:14;;;;;;;4.20;3.80;;;15.00;50.00;;;;;;6101151;23;20532;-64
2023/04/20 08:34:40;;;;;;;3.30;2.73;;;15.00;49.90;;;;;;6126751;23;20232;-65
2023/04/20 08:37:06;;;;;;;3.53;3.10;;;15.00;49.90;;;;;;6127148;23;20416;-65
2023/04/20 08:39:31;;;;;;;2.93;2.63;;;15.00;49.90;;;;;;6127247;23;20400;-65
2023/04/20 08:41:57;;;;;;;2.80;2.60;;;15.00;49.90;;;;;;6126609;23;20188;-65
2023/04/20 08:44:23;;;;;;;2.77;2.53;;;15.10;50.00;;;;;;6127047;23;20183;-66
2023/04/20 08:46:50;;;;;;;2.87;2.50;;;15.10;50.00;;;;;;6126820;23;20153;-65
2023/04/20 08:49:16;;;;;;;5.30;2.50;;;15.10;50.00;;;;;;6101907;23;20389;-65
2023/04/20 08:51:43;;;;;;;4.87;3.30;;;15.10;50.10;;;;;;6126648;23;20788;-66
2023/04/20 08:54:10;;;;;;;4.83;2.60;;;15.10;49.90;;;;;;6126820;23;20373;-65
2023/04/20 08:56:38;;;;;;;4.00;2.70;;;15.10;49.90;;;;;;6126993;23;20377;-66
2023/04/20 08:59:04;;;;;;;4.63;2.80;;;15.20;50.00;;;;;;6128432;23;20427;-67
2023/04/20 09:01:31;;;;;;;3.00;2.63;;;15.20;50.00;;;;;;6127061;23;20417;-65
2023/04/20 09:03:58;;;;;;;2.87;2.60;;;15.20;50.00;;;;;;6126597;23;20380;-66
2023/04/20 09:06:24;;;;;;;3.20;2.90;;;15.20;50.00;;;;;;6127306;23;20373;-65
2023/04/20 09:08:50;;;;;;;2.60;2.40;;;15.20;50.00;;;;;;6127795;23;20387;-70
2023/04/20 09:11:21;;;;;;;3.30;2.70;;;15.20;50.00;;;;;;6128079;23;20179;-70
2023/04/20 09:14:05;;;;;;;4.03;2.60;;;15.20;50.00;;;;;;6127661;23;20615;-71
2023/04/20 09:16:33;;;;;;;3.33;3.03;;;15.20;50.00;;;;;;6101078;23;20385;-71
2023/04/20 09:18:59;;;;;;;2.70;2.40;;;15.20;50.60;;;;;;6128545;23;20423;-71
2023/04/20 09:21:26;;;;;;;2.37;2.17;;;15.20;50.10;;;;;;6128241;23;20393;-71
2023/04/20 09:24:05;;;;;;;3.50;2.90;;;15.30;50.20;;;;;;6127734;23;20157;-72
2023/04/20 09:26:35;;;;;;;2.40;2.20;;;15.30;50.20;;;;;;6129486;23;20412;-71
2023/04/20 09:29:14;;;;;;;3.50;2.50;;;15.30;50.20;;;;;;6128164;23;20416;-70
2023/04/20 09:31:40;;;;;;;2.63;2.43;;;15.30;50.30;;;;;;6126828;23;20388;-71
2023/04/20 09:34:06;;;;;;;2.60;2.40;;;15.30;50.30;;;;;;6126735;23;20431;-70
2023/04/20 09:36:39;;;;;;;2.93;2.70;;;15.30;50.90;;;;;;6126894;23;20236;-71
2023/04/20 09:39:13;;;;;;;2.10;1.90;;;15.30;50.30;;;;;;6126750;23;20427;-72
2023/04/20 09:41:40;;;;;;;2.50;2.30;;;15.30;50.30;;;;;;6130372;23;20420;-71
2023/04/20 09:44:07;;;;;;;2.70;2.50;;;15.30;50.30;;;;;;6131263;23;20377;-70
2023/04/20 09:46:34;;;;;;;2.90;2.70;;;15.30;50.40;;;;;;6129220;23;20468;-70
2023/04/20 09:49:03;;;;;;;2.20;2.00;;;15.30;50.40;;;;;;6129060;23;20373;-71
2023/04/20 09:51:30;;;;;;;2.50;2.30;;;15.30;50.40;;;;;;6128025;23;20458;-71
2023/04/20 09:53:58;;;;;;;3.17;2.50;;;15.30;50.40;;;;;;6128235;23;20719;-70
2023/04/20 09:56:25;;;;;;;3.07;2.43;;;15.30;50.40;;;;;;6127016;23;20377;-71
2023/04/20 09:58:52;;;;;;;3.03;2.20;;;15.40;50.50;;;;;;6102329;23;20424;-70
2023/04/20 10:01:18;;;;;;;2.27;1.90;;;15.40;50.50;;;;;;6102203;23;20401;-71
2023/04/20 10:03:45;;;;;;;2.40;2.20;;;15.40;50.50;;;;;;6128205;23;20368;-71
2023/04/20 10:06:26;;;;;;;2.60;2.40;;;15.40;50.50;;;;;;6128363;23;20376;-71
2023/04/20 10:08:52;;;;;;;2.67;2.47;;;15.40;50.50;;;;;;6128489;23;20357;-70
2023/04/20 10:11:32;;;;;;;2.50;2.30;;;15.40;50.50;;;;;;6127899;23;20404;-71
2023/04/20 10:14:00;;;;;;;2.67;2.47;;;15.40;50.50;;;;;;6128074;23;20383;-71
2023/04/20 10:16:26;;;;;;;3.70;2.10;;;15.40;50.60;;;;;;6128158;23;20456;-71
2023/04/20 10:19:03;;;;;;;2.47;2.10;;;15.40;50.60;;;;;;6128195;23;20417;-72
2023/04/20 10:21:33;;;;;;;5.53;2.20;;;15.40;50.60;;;;;;6128262;23;20842;-71
2023/04/20 10:24:00;;;;;;;2.70;2.50;;;15.40;50.60;;;;;;6128470;23;20668;-70
2023/04/20 10:26:36;;;;;;;2.50;2.30;;;15.40;50.60;;;;;;6129795;23;20464;-72
2023/04/20 10:29:02;;;;;;;2.10;1.83;;;15.40;50.60;;;;;;6130273;23;20384;-72
2023/04/20 10:31:40;;;;;;;2.20;2.00;;;15.40;50.60;;;;;;6130543;23;20401;-71
2023/04/20 10:34:07;;;;;;;3.43;2.70;;;15.50;50.60;;;;;;6129759;23;20176;-74
2023/04/20 10:36:35;;;;;;;2.43;2.23;;;15.40;50.50;;;;;;6129626;23;20377;-72
2023/04/20 10:39:16;;;;;;;2.20;2.00;;;15.40;50.50;;;;;;6129050;23;20420;-72
2023/04/20 10:42:00;;;;;;;2.90;2.60;;;15.40;50.60;;;;;;6127671;23;20420;-71
2023/04/20 10:44:26;;;;;;;2.30;2.10;;;15.40;50.60;;;;;;6127958;23;20363;-72
2023/04/20 10:46:53;;;;;;;3.10;2.17;;;15.40;50.60;;;;;;6128057;23;20373;-71
2023/04/20 10:49:19;;;;;;;2.87;2.50;;;15.40;50.60;;;;;;6102395;23;20686;-71
2023/04/20 10:51:52;;;;;;;2.50;2.30;;;15.40;50.70;;;;;;6127699;23;20404;-71
2023/04/20 10:54:18;;;;;;;2.87;2.20;;;15.40;50.70;;;;;;6101503;23;20381;-71
2023/04/20 10:56:51;;;;;;;2.37;2.17;;;15.40;51.20;;;;;;6127268;23;20451;-71
2023/04/20 10:59:20;;;;;;;2.37;2.17;;;15.40;50.70;;;;;;6127464;23;20377;-71
2023/04/20 11:01:46;;;;;;;3.40;2.20;;;15.30;50.70;;;;;;6127509;23;20543;-71
2023/04/20 11:04:12;;;;;;;3.57;2.73;;;15.30;50.70;;;;;;6127273;23;20404;-71
2023/04/20 11:06:40;;;;;;;2.73;2.20;;;15.30;50.70;;;;;;6127544;23;20455;-71
2023/04/20 11:09:21;;;;;;;2.40;2.20;;;15.30;50.70;;;;;;6100875;23;20381;-71
2023/04/20 11:12:11;;;;;;;2.83;2.50;;;15.40;50.80;;;;;;6101245;23;20404;-71
2023/04/20 11:14:49;;;;;;;3.87;3.10;;;15.30;50.70;;;;;;6127477;23;20360;-71
2023/04/20 11:17:15;;;;;;;2.57;2.20;;;15.30;50.80;;;;;;6127099;23;20412;-71
2023/04/20 11:19:40;;;;;;;2.93;2.07;;;15.30;50.80;;;;;;6127294;23;20427;-71
2023/04/20 11:22:06;;;;;;;2.40;2.20;;;15.30;50.80;;;;;;6128052;23;20255;-71
2023/04/20 11:24:33;;;;;;;2.60;2.40;;;15.30;50.80;;;;;;6127575;23;20159;-70
2023/04/20 11:27:00;;;;;;;2.97;2.20;;;15.30;50.80;;;;;;6128241;23;20160;-70
2023/04/20 11:29:36;;;;;;;3.10;2.60;;;15.30;50.80;;;;;;6127619;23;20863;-72
2023/04/20 11:32:07;;;;;;;4.33;3.07;;;15.30;50.80;;;;;;6127992;23;20393;-71
2023/04/20 11:34:35;;;;;;;2.70;2.43;;;15.30;50.90;;;;;;6127744;23;20445;-71
2023/04/20 11:37:12;;;;;;;2.00;1.90;;;15.30;50.90;;;;;;6127767;23;20369;-71
2023/04/20 11:39:38;;;;;;;2.20;2.00;;;15.30;50.90;;;;;;6128443;23;20384;-70
2023/04/20 11:42:04;;;;;;;3.10;2.30;;;15.30;50.90;;;;;;6126996;23;20480;-71
2023/04/20 11:44:30;;;;;;;3.63;2.20;;;15.30;50.90;;;;;;6126952;23;20391;-70
2023/04/20 11:46:58;;;;;;;2.40;2.07;;;15.30;50.90;;;;;;6127460;23;20448;-70
2023/04/20 11:49:25;;;;;;;2.77;2.27;;;15.30;50.90;;;;;;6127176;23;20153;-71
2023/04/20 11:51:51;;;;;;;2.93;2.30;;;15.30;51.00;;;;;;6126960;23;20393;-71
2023/04/20 11:54:20;;;;;;;4.80;2.60;;;15.30;51.00;;;;;;6101272;23;20812;-71
2023/04/20 11:56:46;;;;;;;2.53;2.33;;;15.30;50.90;;;;;;6102192;23;20381;-71
2023/04/20 11:59:13;;;;;;;2.43;2.10;;;15.30;50.90;;;;;;6126785;23;20421;-71
2023/04/20 12:01:39;;;;;;;3.20;2.57;;;15.30;51.00;;;;;;6126932;23;20401;-65
2023/04/20 12:04:05;;;;;;;3.17;2.57;;;15.30;51.00;;;;;;6127324;23;20377;-63
2023/04/20 12:06:31;;;;;;;2.80;2.47;;;15.30;51.00;;;;;;6101119;23;20373;-70
2023/04/20 12:08:57;;;;;;;3.47;2.20;;;15.30;51.00;;;;;;6101887;23;20384;-71
2023/04/20 12:11:23;;;;;;;3.27;2.43;;;15.30;51.00;;;;;;6053133;23;20211;-71
2023/04/20 12:13:49;;;;;;;2.57;2.33;;;15.20;50.90;;;;;;6127171;23;20392;-71
2023/04/20 12:16:15;;;;;;;2.47;2.13;;;15.20;51.00;;;;;;6128658;23;20440;-69
2023/04/20 12:18:41;;;;;;;2.87;2.17;;;15.20;51.00;;;;;;6126995;23;20244;-68
2023/04/20 12:21:07;;;;;;;2.00;1.80;;;15.20;51.00;;;;;;6126986;23;20381;-69
2023/04/20 12:23:35;;;;;;;2.50;2.30;;;15.20;51.00;;;;;;6126563;23;20369;-72
2023/04/20 12:26:02;;;;;;;2.60;2.10;;;15.20;51.00;;;;;;6126334;23;20184;-72
2023/04/20 12:28:27;;;;;;;2.40;2.07;;;15.20;51.00;;;;;;6126640;23;20384;-72
2023/04/20 12:30:53;;;;;;;2.77;2.33;;;15.20;51.00;;;;;;6126500;23;20838;-72
2023/04/20 12:33:18;;;;;;;3.10;1.80;;;15.20;51.00;;;;;;6126419;23;20235;-72
2023/04/20 12:35:44;;;;;;;3.97;2.60;;;15.20;51.00;;;;;;6126097;23;20161;-72
2023/04/20 12:38:10;;;;;;;2.73;2.50;;;15.20;51.10;;;;;;6126354;23;20231;-72
2023/04/20 12:40:35;;;;;;;2.20;1.97;;;15.20;51.10;;;;;;6126181;23;20145;-68
2023/04/20 12:43:02;;;;;;;2.50;2.30;;;15.20;51.10;;;;;;6126190;23;20490;-69
2023/04/20 12:45:27;;;;;;;2.60;2.40;;;15.20;51.10;;;;;;6126033;23;20224;-72